Hartford, South Dakota
Current Conditions -  °F | °C
As of 5:56 PM on Friday 21 Nov 2014 (Local Time) from KFSD Reporting Station
Overcast Overcast  
Wind Chill: 27°   Ceiling: 15000
Heat Index: 34°   Visibility: 10mi
Dew Point: 27°   Wind: 9mph
Humidity: 75%   Direction: 200°SSW
Pressure: 29.9"   Gusts: 20mph
Location:  43.62°N, 96.94°W
Report Text: KFSD 212356Z 20008G17KT 10SM BKN150 OVC250 01/M03 A2990 RMK AO2 SLP146 4/001 T00111028 10017 21011 58001
Loading
Personal Weather Stations






























Interactive Weather Map New forecast layout! Learn more

10-Day Weather Forecast

Advertisements
Track Severe Weather on mobile